LUG weather

Lugano Airport
Lugano, Canton of Ticino, Switzerland

Public forecast

Using degrees Celsius for public forecast. Weather courtesy of forecast.io.

METAR (pilot weather report)

Retrieved 2019/07/17 20:20 UTC (0 seconds ago):

LSZA 172020Z AUTO VRB01KT CAVOK 22/15 Q1012

TAF (pilot weather forecast)

Closest forecast is Malpensa International Airport, 23.7 nm (43.9 km) SSW. Retrieved 2019/07/17 18:22 UTC (2 hours ago):

TAF LIMC 171700Z 1718/1824 VRB05KT CAVOK PROB30 TEMPO 1802/1808 TSRA